Helsinki Malmi, Finland

11:24 AM EET on October 31, 2014 (GMT +0200)
Hiekkaharju | Change Station
CLOSE
Current Station
Personal Weather Station
Location: Vantaa, UUSIMAA
Elevation: 135 ft
Nearby Weather Stations

Elev 135 ft 60.31 °N, 25.04 °E | Updated 8 minutes ago

Mostly Cloudy
Mostly Cloudy
41.5 °F
Feels Like 42 °F
N
2.2
Wind Variable Wind from NW
Gusts 3.1 mph

Today
High -- | Low -- °F
--% Chance of Precip.
Yesterday
High -- | Low -- °F
Precip. -- in
7:39 AM 4:25 PM
First Quarter, 53% visible
Pressure 30.15 in
Visibility 6.2 miles
Clouds Mostly Cloudy 2600 ft
Windchill 42 °F
Dew Point 38 °F
Humidity 87%
Rainfall 0.01 in
Snow Depth Not available.
UV 1 out of 12
Pollen Not available.
Air Quality Not available.
Flu Activity Not available.
METAR EFHK 310920Z 28008KT 9999 BKN026 05/01 Q1021 NOSIG

More Conditions Fewer Conditions

Pressure 30.15 in
Visibility 6.2 miles
Clouds Mostly Cloudy 2600 ft
Windchill 42 °F
Dew Point 38 °F
Humidity 87%
Rainfall 0.01 in
Snow Depth Not available.
UV 1 out of 12
Pollen Not available.
Air Quality Not available.
Flu Activity Not available.
METAR EFHK 310920Z 28008KT 9999 BKN026 05/01 Q1021 NOSIG

More Conditions Fewer Conditions

10-Day Weather Forecast

Almanac

Astronomy

Oct. 31, 2014 Rise Set
Actual Time
Civil Twilight
Nautical Twilight
Astronomical Twilight
Moon
Length of Visible Light
Length of Day
Tomorrow will be .
, % of the Moon is Illuminated

Today's Extremes

Country Highs Country Lows

Community

WunderPhotos

Upload Photos

1,766,576 photos uploaded!

WunderBlogs® & News

Nearby

Air Quality

  Air Quality AQ Index Pollutant
Not available.

Snow Depth

Station Depth Elevation

Earthquake Activity

City Distance Mag. Time & Date
Minimum magnitude displayed is 2.5.

Coastal Water Temperatures

Place Temperature

Nearby Weather Stations